MAPA DE AEROPUERTO

INFORMACIÓN METAR y TAF

METAR FOR LEMD
ADDS - METARS form results

(0042 UTC 22 February 2020)
Data provider http://aviationweather.gov/metar/data/
 
METAR text: LEMD 220030Z 34003KT CAVOK 03/M01 Q1031 NOSIG
Conditions at: LEMD (MADRID/BARAJAS , ES) observed 0030 UTC 22 February 2020
Temperature: 3.0°C (37°F)
Dewpoint: -1.0°C (30°F) [RH = 75%]
Pressure (altimeter): 30.44 inches Hg (1031.0 mb)
Winds: from the NNW (340 degrees) at 3 MPH (3 knots; 1.5 m/s)
Visibility: 6 or more miles (10+ km)
Ceiling: ceiling and visibility are OK
Clouds: unknown
Weather: no significant weather observed at this time

METAR text: LEMD 220000Z 36003KT CAVOK 05/M00 Q1031 NOSIG
Conditions at: LEMD (MADRID/BARAJAS , ES) observed 0000 UTC 22 February 2020
Temperature: 5.0°C (41°F)
Dewpoint: 0.0°C (32°F) [RH = 70%]
Pressure (altimeter): 30.44 inches Hg (1031.0 mb)
Winds: from the N (360 degrees) at 3 MPH (3 knots; 1.5 m/s)
Visibility: 6 or more miles (10+ km)
Ceiling: ceiling and visibility are OK
Clouds: unknown
Weather: no significant weather observed at this time

Forecast for: LEMD (MADRID/BARAJAS , ES)
Text: TAF LEMD 212300Z 2200/2306 VRB04KT CAVOK TX21/2216Z TNM01/2206Z
Forecast period: 0000 UTC 22 February 2020 to 0600 UTC 23 February 2020
Forecast type: FROM: standard forecast or significant change
Winds: variable direction winds at 5 MPH (4 knots; 2.1 m/s)
Visibility: 6 or more miles 10+ km)
Ceiling: unknown
Clouds: missing
Weather: no significant weather forecast for this period
Text: TEMPO 2200/2207 02007KT
Forecast period: 0000 to 0700 UTC 22 February 2020
Forecast type: TEMPORARY: The following changes expected for less than half the time period
Winds: from the NNE (20 degrees) at 8 MPH (7 knots; 3.6 m/s)
Visibility: missing
Ceiling: unknown
Clouds: missing
Weather: no significant weather forecast for this period
Text: TEMPO 2219/2306 02006KT
Forecast period: 1900 UTC 22 February 2020 to 0600 UTC 23 February 2020
Forecast type: TEMPORARY: The following changes expected for less than half the time period
Winds: from the NNE (20 degrees) at 7 MPH (6 knots; 3.1 m/s)
Visibility: missing
Ceiling: unknown
Clouds: missing
Weather: no significant weather forecast for this period